createdAt,value
2018-07-05T00:02:10.063Z,18.80
2018-07-05T00:04:50.091Z,18.80
2018-07-05T00:07:29.740Z,18.80
2018-07-05T00:10:09.187Z,18.80
2018-07-05T00:12:49.527Z,18.80
2018-07-05T00:15:29.327Z,18.80
2018-07-05T00:18:08.934Z,18.60
2018-07-05T00:20:48.617Z,18.60
2018-07-05T00:23:28.643Z,18.60
2018-07-05T00:26:08.734Z,18.60
2018-07-05T00:28:48.781Z,18.50
2018-07-05T00:31:28.402Z,18.50
2018-07-05T00:34:08.177Z,18.40
2018-07-05T00:39:21.611Z,18.40
2018-07-05T00:42:01.159Z,18.40
2018-07-05T00:44:41.260Z,18.40
2018-07-05T00:47:20.908Z,18.40
2018-07-05T00:50:00.611Z,18.30
2018-07-05T00:52:40.230Z,18.30
2018-07-05T00:55:19.890Z,18.20
2018-07-05T00:57:59.595Z,18.10
2018-07-05T01:00:39.934Z,18.10
2018-07-05T01:03:19.840Z,18.10
2018-07-05T01:05:59.976Z,18.00
2018-07-05T01:08:39.694Z,17.90
2018-07-05T01:11:19.328Z,17.80
2018-07-05T01:13:58.828Z,17.80
2018-07-05T01:16:39.002Z,17.80
2018-07-05T01:19:18.703Z,17.80
2018-07-05T01:21:58.283Z,17.80
2018-07-05T01:24:38.027Z,17.80
2018-07-05T01:27:17.669Z,17.90
2018-07-05T01:29:57.313Z,17.80
2018-07-05T01:32:37.475Z,17.70
2018-07-05T01:35:17.058Z,17.70
2018-07-05T01:37:56.959Z,17.60
2018-07-05T01:40:36.474Z,17.60
2018-07-05T01:43:16.313Z,17.50
2018-07-05T01:48:30.410Z,17.50
2018-07-05T01:51:10.206Z,17.50
2018-07-05T01:53:50.350Z,17.50
2018-07-05T01:56:29.961Z,17.40
2018-07-05T01:59:09.652Z,17.40
2018-07-05T02:01:49.286Z,17.40
2018-07-05T02:04:29.370Z,17.30
2018-07-05T02:07:09.346Z,17.30
2018-07-05T02:09:49.094Z,17.20
2018-07-05T02:12:28.777Z,17.10
2018-07-05T02:15:08.435Z,17.10
2018-07-05T02:20:22.490Z,17.10
2018-07-05T02:23:02.033Z,17.10
2018-07-05T02:25:42.209Z,17.10
2018-07-05T02:28:21.972Z,17.10
2018-07-05T02:31:01.795Z,17.00
2018-07-05T02:33:41.546Z,16.90
2018-07-05T02:36:21.315Z,17.00
2018-07-05T02:39:06.362Z,17.00
2018-07-05T02:41:46.347Z,16.90
2018-07-05T02:51:52.945Z,17.00
2018-07-05T02:54:32.523Z,16.80
2018-07-05T02:57:12.220Z,16.70
2018-07-05T02:59:52.001Z,16.70
2018-07-05T03:02:31.596Z,16.60
2018-07-05T03:05:11.206Z,16.40
2018-07-05T03:07:51.316Z,16.50
2018-07-05T03:10:30.965Z,16.50
2018-07-05T03:13:10.693Z,16.50
2018-07-05T03:15:50.249Z,16.50
2018-07-05T03:18:30.031Z,16.50
2018-07-05T03:21:09.522Z,16.60
2018-07-05T03:23:49.574Z,16.60
2018-07-05T03:26:29.366Z,16.50
2018-07-05T03:29:08.987Z,16.30
2018-07-05T03:34:22.608Z,16.10
2018-07-05T03:37:02.574Z,16.20
2018-07-05T03:39:42.280Z,16.30
2018-07-05T03:44:55.873Z,16.30
2018-07-05T03:47:35.469Z,16.30
2018-07-05T03:50:15.178Z,16.40
2018-07-05T03:52:54.878Z,16.40
2018-07-05T03:55:34.807Z,16.50
2018-07-05T03:58:14.574Z,16.50
2018-07-05T04:00:54.401Z,16.50
2018-07-05T04:03:34.939Z,16.60
2018-07-05T04:06:14.647Z,16.60
2018-07-05T04:08:54.982Z,16.70
2018-07-05T04:11:35.288Z,16.70
2018-07-05T04:14:15.102Z,16.70
2018-07-05T04:16:54.799Z,16.80
2018-07-05T04:19:38.371Z,16.90
2018-07-05T04:22:18.082Z,16.90
2018-07-05T04:24:57.688Z,16.90
2018-07-05T04:30:11.435Z,17.00
2018-07-05T04:32:51.030Z,17.00
2018-07-05T04:35:30.754Z,17.10
2018-07-05T04:38:10.441Z,17.10
2018-07-05T04:40:49.968Z,17.20
2018-07-05T04:43:30.134Z,17.30
2018-07-05T04:46:09.690Z,17.30
2018-07-05T04:48:49.570Z,17.30
2018-07-05T04:51:29.288Z,17.30
2018-07-05T04:54:08.932Z,17.30
2018-07-05T04:56:48.687Z,17.20
2018-07-05T04:59:28.840Z,17.20
2018-07-05T05:02:08.534Z,17.30
2018-07-05T05:04:48.508Z,17.40
2018-07-05T05:07:28.463Z,17.50
2018-07-05T05:10:08.707Z,17.60
2018-07-05T05:12:48.470Z,17.80
2018-07-05T05:15:29.019Z,17.80
2018-07-05T05:18:08.686Z,17.80
2018-07-05T05:20:48.919Z,17.80
2018-07-05T05:23:28.510Z,17.90
2018-07-05T05:26:08.174Z,18.00
2018-07-05T05:28:47.898Z,18.10
2018-07-05T05:31:28.097Z,18.20
2018-07-05T05:34:07.778Z,18.30
2018-07-05T05:36:47.414Z,18.60
2018-07-05T05:39:27.479Z,18.80
2018-07-05T05:42:07.162Z,19.30
2018-07-05T05:44:46.794Z,19.80
2018-07-05T05:53:05.394Z,21.90
2018-07-05T05:55:45.183Z,24.30
2018-07-05T06:00:59.491Z,25.80
2018-07-05T06:03:39.334Z,26.10
2018-07-05T06:06:19.231Z,27.10
2018-07-05T06:08:59.479Z,27.50
2018-07-05T06:11:39.894Z,28.20
2018-07-05T06:14:19.513Z,28.30
2018-07-05T06:16:59.087Z,28.20
2018-07-05T06:19:38.743Z,27.60
2018-07-05T06:22:18.503Z,28.10
2018-07-05T06:24:58.471Z,29.00
2018-07-05T06:27:38.390Z,30.00
2018-07-05T06:30:18.215Z,30.70
2018-07-05T06:32:58.046Z,31.30
2018-07-05T06:35:37.624Z,31.40
2018-07-05T06:38:17.298Z,31.30
2018-07-05T06:40:57.339Z,30.70
2018-07-05T06:43:37.136Z,30.20
2018-07-05T06:46:16.987Z,30.00
2018-07-05T06:48:56.507Z,30.70
2018-07-05T06:51:36.591Z,31.40
2018-07-05T06:54:16.258Z,31.40
2018-07-05T06:56:56.166Z,33.00
2018-07-05T06:59:35.815Z,33.90
2018-07-05T07:02:15.526Z,34.50
2018-07-05T07:07:29.379Z,33.50
2018-07-05T07:10:09.127Z,33.40
2018-07-05T07:12:50.367Z,33.90
2018-07-05T07:15:30.023Z,34.10
2018-07-05T07:18:09.788Z,33.90
2018-07-05T07:20:49.670Z,34.00
2018-07-05T07:23:29.870Z,33.50
2018-07-05T07:26:09.976Z,32.80
2018-07-05T07:31:23.811Z,32.50
2018-07-05T07:34:03.567Z,32.70
2018-07-05T07:36:43.326Z,32.90
2018-07-05T07:39:23.029Z,33.10
2018-07-05T07:41:51.366Z,33.40
2018-07-05T07:44:20.151Z,33.60
2018-07-05T07:46:49.402Z,33.50
2018-07-05T07:51:44.619Z,33.40
2018-07-05T07:54:11.998Z,33.30
2018-07-05T07:56:39.407Z,32.70
2018-07-05T07:59:06.808Z,32.20
2018-07-05T08:01:35.343Z,31.10
2018-07-05T08:04:03.333Z,30.60
2018-07-05T08:06:30.906Z,30.70
2018-07-05T08:08:58.591Z,30.40
2018-07-05T08:11:25.919Z,30.40
2018-07-05T08:13:53.315Z,30.50
2018-07-05T08:16:20.695Z,30.70
2018-07-05T08:18:48.283Z,30.90
2018-07-05T08:21:16.530Z,30.70
2018-07-05T08:23:43.957Z,30.40
2018-07-05T08:26:11.318Z,31.00
2018-07-05T08:28:38.817Z,31.50
2018-07-05T08:31:06.678Z,32.00
2018-07-05T08:33:34.147Z,32.60
2018-07-05T08:38:29.111Z,32.50
2018-07-05T08:40:56.491Z,32.60
2018-07-05T08:43:24.067Z,32.70
2018-07-05T08:45:51.458Z,33.00
2018-07-05T08:48:18.791Z,33.10
2018-07-05T08:50:46.675Z,33.40
2018-07-05T08:53:15.858Z,33.80
2018-07-05T08:55:43.330Z,34.30
2018-07-05T08:58:10.707Z,35.00
2018-07-05T09:00:38.061Z,36.00
2018-07-05T09:05:33.066Z,38.00
2018-07-05T09:08:00.976Z,37.50
2018-07-05T09:10:28.326Z,37.20
2018-07-05T09:12:55.674Z,38.10
2018-07-05T09:15:23.384Z,38.20
2018-07-05T09:17:50.948Z,38.70
2018-07-05T09:20:24.484Z,39.80
2018-07-05T09:22:52.262Z,40.60
2018-07-05T09:25:19.643Z,41.20
2018-07-05T09:30:15.539Z,42.40
2018-07-05T09:32:43.047Z,41.90
2018-07-05T09:35:11.114Z,39.20
2018-07-05T09:37:38.504Z,38.40
2018-07-05T09:40:05.862Z,37.90
2018-07-05T09:42:33.244Z,37.10
2018-07-05T09:45:01.107Z,36.50
2018-07-05T09:47:28.428Z,36.30
2018-07-05T09:49:55.806Z,35.60
2018-07-05T09:52:23.144Z,36.30
2018-07-05T09:54:50.479Z,36.00
2018-07-05T09:57:18.841Z,35.30
2018-07-05T09:59:46.196Z,35.70
2018-07-05T10:09:44.998Z,35.60
2018-07-05T10:12:12.334Z,35.40
2018-07-05T10:14:39.727Z,35.80
2018-07-05T10:17:07.995Z,35.60
2018-07-05T10:19:36.398Z,35.70
2018-07-05T10:22:03.736Z,35.40
2018-07-05T10:24:31.094Z,35.00
2018-07-05T10:26:58.434Z,34.60
2018-07-05T10:29:38.099Z,34.70
2018-07-05T10:32:18.150Z,34.50
2018-07-05T10:34:46.217Z,33.40
2018-07-05T10:37:20.308Z,32.80
2018-07-05T10:40:00.066Z,32.40
2018-07-05T10:42:40.620Z,32.60
2018-07-05T10:45:20.358Z,32.40
2018-07-05T10:48:00.319Z,32.50
2018-07-05T10:50:40.361Z,32.60
2018-07-05T10:53:20.103Z,32.60
2018-07-05T10:55:59.712Z,32.70
2018-07-05T10:58:39.442Z,32.50
2018-07-05T11:01:19.206Z,31.90
2018-07-05T11:03:58.959Z,32.00
2018-07-05T11:06:39.903Z,32.00
2018-07-05T11:09:19.533Z,32.50
2018-07-05T11:11:59.767Z,32.70
2018-07-05T11:14:39.400Z,32.70
2018-07-05T11:19:52.963Z,33.10
2018-07-05T11:22:33.083Z,33.30
2018-07-05T11:25:12.648Z,33.30
2018-07-05T11:27:52.871Z,33.50
2018-07-05T11:30:32.487Z,33.70
2018-07-05T11:33:12.163Z,33.90
2018-07-05T11:35:51.936Z,34.10
2018-07-05T11:38:32.094Z,34.20
2018-07-05T11:41:11.806Z,34.20
2018-07-05T11:43:51.619Z,34.10
2018-07-05T11:46:31.327Z,33.70
2018-07-05T11:49:10.893Z,33.70
2018-07-05T11:51:50.457Z,33.80
2018-07-05T11:57:04.019Z,34.00
2018-07-05T12:02:17.736Z,33.90
2018-07-05T12:04:57.351Z,33.60
2018-07-05T12:07:37.032Z,33.50
2018-07-05T12:10:17.426Z,33.50
2018-07-05T12:12:57.410Z,33.50
2018-07-05T12:15:38.713Z,33.60
2018-07-05T12:18:18.329Z,33.50
2018-07-05T12:20:58.294Z,33.40
2018-07-05T12:26:12.512Z,33.30
2018-07-05T12:28:52.142Z,33.40
2018-07-05T12:31:32.721Z,33.20
2018-07-05T12:34:12.514Z,33.00
2018-07-05T12:36:52.192Z,32.70
2018-07-05T12:39:31.791Z,32.20
2018-07-05T12:42:11.544Z,31.50
2018-07-05T12:44:51.222Z,31.00
2018-07-05T12:50:04.790Z,30.80
2018-07-05T12:52:44.589Z,30.60
2018-07-05T12:55:24.678Z,30.30
2018-07-05T12:58:04.694Z,30.20
2018-07-05T13:00:44.274Z,30.10
2018-07-05T13:03:23.912Z,30.00
2018-07-05T13:06:03.510Z,30.10
2018-07-05T13:11:16.720Z,29.90
2018-07-05T13:13:56.772Z,29.30
2018-07-05T13:16:36.394Z,29.00
2018-07-05T13:21:52.870Z,28.50
2018-07-05T13:24:32.527Z,28.10
2018-07-05T13:27:12.458Z,27.70
2018-07-05T13:29:52.275Z,27.70
2018-07-05T13:32:31.854Z,27.70
2018-07-05T13:35:11.487Z,27.60
2018-07-05T13:37:51.214Z,27.40
2018-07-05T13:40:31.518Z,27.40
2018-07-05T13:45:45.329Z,27.00
2018-07-05T13:48:25.795Z,27.00
2018-07-05T13:51:05.695Z,26.80
2018-07-05T13:53:45.751Z,26.70
2018-07-05T14:01:32.641Z,26.40
2018-07-05T14:04:12.086Z,26.30
2018-07-05T14:06:51.790Z,26.40
2018-07-05T14:09:31.707Z,26.60
2018-07-05T14:12:11.512Z,26.50
2018-07-05T14:14:51.307Z,26.50
2018-07-05T14:17:31.649Z,26.60
2018-07-05T14:20:11.371Z,26.80
2018-07-05T14:22:51.734Z,26.90
2018-07-05T14:28:05.319Z,26.90
2018-07-05T14:30:45.264Z,26.80
2018-07-05T14:33:25.822Z,27.10
2018-07-05T14:36:05.574Z,27.00
2018-07-05T14:38:45.836Z,27.00
2018-07-05T14:41:26.586Z,27.10
2018-07-05T14:44:07.396Z,27.20
2018-07-05T14:46:47.071Z,27.20
2018-07-05T14:49:28.552Z,27.10
2018-07-05T14:52:08.301Z,26.90
2018-07-05T14:54:47.922Z,26.90
2018-07-05T14:57:28.577Z,26.70
2018-07-05T15:00:08.968Z,26.80
2018-07-05T15:02:48.797Z,26.80
2018-07-05T15:05:29.262Z,26.90
2018-07-05T15:08:08.959Z,26.90
2018-07-05T15:10:48.763Z,26.90
2018-07-05T15:13:28.576Z,26.90
2018-07-05T15:16:08.211Z,26.60
2018-07-05T15:18:47.866Z,26.30
2018-07-05T15:21:29.111Z,26.10
2018-07-05T15:24:08.870Z,26.10
2018-07-05T15:26:48.598Z,26.20
2018-07-05T15:29:28.569Z,26.20
2018-07-05T15:32:08.193Z,26.30
2018-07-05T15:34:47.936Z,26.30
2018-07-05T15:37:28.602Z,26.40
2018-07-05T15:40:08.414Z,26.60
2018-07-05T15:42:48.205Z,26.50
2018-07-05T15:45:28.727Z,26.50
2018-07-05T15:48:08.230Z,26.40
2018-07-05T15:50:47.808Z,26.20
2018-07-05T15:53:28.426Z,26.00
2018-07-05T15:56:08.172Z,25.80
2018-07-05T15:58:47.811Z,25.60
2018-07-05T16:01:27.404Z,25.40
2018-07-05T16:04:07.737Z,25.30
2018-07-05T16:06:47.402Z,25.00
2018-07-05T16:09:29.155Z,24.80
2018-07-05T16:12:08.884Z,24.80
2018-07-05T16:17:22.284Z,24.80
2018-07-05T16:20:02.105Z,24.90
2018-07-05T16:22:41.892Z,24.70
2018-07-05T16:27:55.643Z,24.50
2018-07-05T16:30:35.800Z,24.20
2018-07-05T16:33:17.363Z,24.10
2018-07-05T16:35:57.110Z,23.90
2018-07-05T16:41:10.992Z,24.00
2018-07-05T16:43:50.730Z,24.30
2018-07-05T16:46:30.488Z,24.20
2018-07-05T16:49:10.262Z,24.10
2018-07-05T16:51:50.075Z,24.20
2018-07-05T16:54:31.270Z,24.10
2018-07-05T16:57:11.229Z,23.90
2018-07-05T16:59:50.796Z,23.80
2018-07-05T17:02:30.563Z,23.70
2018-07-05T17:05:10.164Z,23.70
2018-07-05T17:07:50.586Z,23.50
2018-07-05T17:10:30.603Z,23.70
2018-07-05T17:13:10.387Z,23.50
2018-07-05T17:15:50.743Z,23.60
2018-07-05T17:18:30.797Z,23.50
2018-07-05T17:21:10.304Z,23.50
2018-07-05T17:23:49.898Z,23.40
2018-07-05T17:26:30.215Z,23.20
2018-07-05T17:29:10.475Z,23.00
2018-07-05T17:31:50.689Z,22.90
2018-07-05T17:34:30.850Z,22.80
2018-07-05T17:37:10.634Z,22.80
2018-07-05T17:39:50.395Z,22.80
2018-07-05T17:42:29.955Z,22.70
2018-07-05T17:45:10.338Z,22.70
2018-07-05T17:47:50.134Z,22.60
2018-07-05T17:50:29.818Z,22.40
2018-07-05T17:53:09.406Z,22.30
2018-07-05T17:55:49.151Z,22.40
2018-07-05T17:58:28.879Z,22.30
2018-07-05T18:01:08.544Z,22.40
2018-07-05T18:03:48.110Z,22.50
2018-07-05T18:06:28.666Z,22.60
2018-07-05T18:09:08.284Z,22.60
2018-07-05T18:11:48.082Z,22.50
2018-07-05T18:14:28.630Z,22.60
2018-07-05T18:17:08.852Z,22.50
2018-07-05T18:19:48.465Z,22.40
2018-07-05T18:22:28.630Z,22.20
2018-07-05T18:25:08.522Z,22.00
2018-07-05T18:27:49.026Z,21.90
2018-07-05T18:30:28.683Z,22.00
2018-07-05T18:33:09.981Z,22.00
2018-07-05T18:35:49.701Z,22.00
2018-07-05T18:38:29.465Z,22.00
2018-07-05T18:41:09.224Z,22.00
2018-07-05T18:46:22.646Z,22.10
2018-07-05T18:49:02.715Z,22.20
2018-07-05T18:51:42.534Z,22.20
2018-07-05T18:54:22.091Z,22.30
2018-07-05T18:57:01.750Z,22.30
2018-07-05T18:59:41.507Z,22.30
2018-07-05T19:02:22.612Z,22.30
2018-07-05T19:05:03.059Z,22.30
2018-07-05T19:07:42.609Z,22.40
2018-07-05T19:10:22.384Z,22.30
2018-07-05T19:13:01.995Z,22.30
2018-07-05T19:18:15.346Z,22.30
2018-07-05T19:20:55.620Z,22.30
2018-07-05T19:23:35.402Z,22.20
2018-07-05T19:26:15.033Z,22.10
2018-07-05T19:28:55.822Z,22.10
2018-07-05T19:31:35.418Z,21.90
2018-07-05T19:34:15.086Z,21.90
2018-07-05T19:36:55.198Z,22.00
2018-07-05T19:39:34.824Z,22.00
2018-07-05T19:42:15.063Z,21.90
2018-07-05T19:44:54.754Z,22.00
2018-07-05T19:47:34.789Z,21.90
2018-07-05T19:50:14.467Z,22.00
2018-07-05T19:52:54.626Z,22.00
2018-07-05T19:55:34.265Z,21.80
2018-07-05T19:58:14.150Z,21.80
2018-07-05T20:00:53.815Z,21.70
2018-07-05T20:03:33.503Z,21.60
2018-07-05T20:06:13.101Z,21.60
2018-07-05T20:08:53.119Z,21.40
2018-07-05T20:11:32.746Z,21.40
2018-07-05T20:14:12.431Z,21.30
2018-07-05T20:16:52.095Z,21.10
2018-07-05T20:19:31.774Z,20.80
2018-07-05T20:22:16.953Z,20.70
2018-07-05T20:24:57.396Z,20.50
2018-07-05T20:27:37.304Z,20.50
2018-07-05T20:30:17.220Z,20.40
2018-07-05T20:32:57.076Z,20.30
2018-07-05T20:35:36.681Z,20.10
2018-07-05T20:38:16.296Z,20.10
2018-07-05T20:40:56.686Z,19.90
2018-07-05T20:43:36.300Z,20.00
2018-07-05T20:46:16.347Z,20.00
2018-07-05T20:51:29.822Z,19.70
2018-07-05T20:54:09.346Z,19.60
2018-07-05T20:56:49.479Z,19.40
2018-07-05T20:59:29.330Z,19.40
2018-07-05T21:04:42.722Z,19.30
2018-07-05T21:07:22.302Z,19.30
2018-07-05T21:10:02.052Z,19.00
2018-07-05T21:12:42.423Z,18.90
2018-07-05T21:15:22.066Z,18.90
2018-07-05T21:20:36.110Z,19.00
2018-07-05T21:23:15.930Z,18.80
2018-07-05T21:25:55.974Z,18.80
2018-07-05T21:28:35.654Z,18.70
2018-07-05T21:31:15.744Z,18.80
2018-07-05T21:33:55.288Z,18.70
2018-07-05T21:36:35.020Z,18.70
2018-07-05T21:39:14.659Z,18.70
2018-07-05T21:44:29.002Z,18.60
2018-07-05T21:47:08.619Z,18.60
2018-07-05T21:49:49.338Z,18.40
2018-07-05T21:52:29.275Z,18.50
2018-07-05T21:55:08.979Z,18.50
2018-07-05T21:57:48.487Z,18.60
2018-07-05T22:00:29.472Z,18.70
2018-07-05T22:03:09.519Z,18.80
2018-07-05T22:05:50.865Z,18.80
2018-07-05T22:08:30.547Z,18.70
2018-07-05T22:11:10.223Z,18.70
2018-07-05T22:13:49.926Z,18.60
2018-07-05T22:16:29.910Z,18.70
2018-07-05T22:19:14.907Z,18.60
2018-07-05T22:21:59.917Z,18.60
2018-07-05T22:24:45.093Z,18.70
2018-07-05T22:27:31.270Z,18.70
2018-07-05T22:30:16.227Z,18.80
2018-07-05T22:35:30.523Z,18.80
2018-07-05T22:38:10.134Z,18.90
2018-07-05T22:40:49.883Z,18.90
2018-07-05T22:46:03.174Z,18.80
2018-07-05T22:48:43.559Z,18.70
2018-07-05T22:51:23.366Z,18.70
2018-07-05T22:54:02.918Z,18.70
2018-07-05T22:56:42.670Z,18.80
2018-07-05T22:59:22.366Z,18.80
2018-07-05T23:02:01.995Z,18.80
2018-07-05T23:04:41.669Z,18.80
2018-07-05T23:07:21.170Z,18.80
2018-07-05T23:10:00.819Z,18.80
2018-07-05T23:12:40.627Z,18.80
2018-07-05T23:15:20.303Z,18.80
2018-07-05T23:18:00.189Z,18.70
2018-07-05T23:20:40.302Z,18.70
2018-07-05T23:23:19.963Z,18.60
2018-07-05T23:25:59.426Z,18.50
2018-07-05T23:28:39.286Z,18.60
2018-07-05T23:31:19.409Z,18.60
2018-07-05T23:33:59.471Z,18.60
2018-07-05T23:36:39.952Z,18.60
2018-07-05T23:39:20.001Z,18.70
2018-07-05T23:41:59.673Z,18.80
2018-07-05T23:44:39.387Z,18.70
2018-07-05T23:47:19.120Z,18.60
2018-07-05T23:49:58.826Z,18.60
2018-07-05T23:52:38.998Z,18.50
2018-07-05T23:55:18.722Z,18.50
2018-07-05T23:57:58.904Z,18.50
